sensor_id;sensor_type;location;lat;lon;timestamp;pressure;altitude;pressure_sealevel;temperature;humidity
76637;BME280;65532;52.124;5.480;2023-10-09T00:01:12;102007.31;;;13.38;1.17
76637;BME280;65532;52.124;5.480;2023-10-09T00:03:44;102012.13;;;13.42;1.06
76637;BME280;65532;52.124;5.480;2023-10-09T00:06:13;102021.09;;;13.43;1.89
76637;BME280;65532;52.124;5.480;2023-10-09T00:08:40;102021.53;;;13.40;3.38
76637;BME280;65532;52.124;5.480;2023-10-09T00:11:11;102005.41;;;13.38;4.79
76637;BME280;65532;52.124;5.480;2023-10-09T00:13:46;102002.69;;;13.38;5.84
76637;BME280;65532;52.124;5.480;2023-10-09T00:16:17;102005.19;;;13.40;6.51
76637;BME280;65532;52.124;5.480;2023-10-09T00:18:44;102005.63;;;13.43;7.54
76637;BME280;65532;52.124;5.480;2023-10-09T00:21:16;101994.28;;;13.46;7.48
76637;BME280;65532;52.124;5.480;2023-10-09T00:23:47;102004.72;;;13.49;7.65
76637;BME280;65532;52.124;5.480;2023-10-09T00:26:25;101991.72;;;13.52;8.58
76637;BME280;65532;52.124;5.480;2023-10-09T00:28:52;101987.94;;;13.53;9.94
76637;BME280;65532;52.124;5.480;2023-10-09T00:31:20;101991.25;;;13.55;11.36
76637;BME280;65532;52.124;5.480;2023-10-09T00:34:00;102008.66;;;13.54;13.55
76637;BME280;65532;52.124;5.480;2023-10-09T00:36:33;102006.53;;;13.56;15.17
76637;BME280;65532;52.124;5.480;2023-10-09T00:39:00;102001.72;;;13.58;17.07
76637;BME280;65532;52.124;5.480;2023-10-09T00:41:37;102001.72;;;13.58;19.28
76637;BME280;65532;52.124;5.480;2023-10-09T00:44:07;102002.56;;;13.58;20.10
76637;BME280;65532;52.124;5.480;2023-10-09T00:46:34;102002.34;;;13.60;21.88
76637;BME280;65532;52.124;5.480;2023-10-09T00:49:01;102001.88;;;13.63;23.00
76637;BME280;65532;52.124;5.480;2023-10-09T00:51:29;102001.66;;;13.64;24.52
76637;BME280;65532;52.124;5.480;2023-10-09T00:54:04;102000.38;;;13.67;25.30
76637;BME280;65532;52.124;5.480;2023-10-09T00:56:42;101999.94;;;13.70;27.05
76637;BME280;65532;52.124;5.480;2023-10-09T00:59:18;101974.38;;;13.71;29.04
76637;BME280;65532;52.124;5.480;2023-10-09T01:01:47;101980.44;;;13.73;30.85
76637;BME280;65532;52.124;5.480;2023-10-09T01:04:24;101983.16;;;13.73;32.43
76637;BME280;65532;52.124;5.480;2023-10-09T01:06:56;101978.34;;;13.75;34.07
76637;BME280;65532;52.124;5.480;2023-10-09T01:09:41;101970.78;;;13.77;35.76
76637;BME280;65532;52.124;5.480;2023-10-09T01:12:11;101964.28;;;13.78;37.56
76637;BME280;65532;52.124;5.480;2023-10-09T01:14:44;101963.22;;;13.79;39.32
76637;BME280;65532;52.124;5.480;2023-10-09T01:17:11;101967.59;;;13.80;40.79
76637;BME280;65532;52.124;5.480;2023-10-09T01:19:45;101976.38;;;13.82;43.24
76637;BME280;65532;52.124;5.480;2023-10-09T01:22:11;101969.63;;;13.85;44.67
76637;BME280;65532;52.124;5.480;2023-10-09T01:24:42;101961.25;;;13.86;46.50
76637;BME280;65532;52.124;5.480;2023-10-09T01:27:09;101964.56;;;13.88;47.75
76637;BME280;65532;52.124;5.480;2023-10-09T01:29:43;101958.69;;;13.91;49.37
76637;BME280;65532;52.124;5.480;2023-10-09T01:32:12;101961.19;;;13.93;50.80
76637;BME280;65532;52.124;5.480;2023-10-09T01:34:46;101958.22;;;13.94;51.31
76637;BME280;65532;52.124;5.480;2023-10-09T01:37:18;101969.72;;;13.96;53.08
76637;BME280;65532;52.124;5.480;2023-10-09T01:39:47;101959.44;;;13.98;55.25
76637;BME280;65532;52.124;5.480;2023-10-09T01:42:18;101962.75;;;14.00;57.15
76637;BME280;65532;52.124;5.480;2023-10-09T01:44:57;101949.75;;;14.02;59.20
76637;BME280;65532;52.124;5.480;2023-10-09T01:47:43;101944.06;;;14.04;60.85
76637;BME280;65532;52.124;5.480;2023-10-09T01:50:19;101946.59;;;14.05;62.49
76637;BME280;65532;52.124;5.480;2023-10-09T01:52:48;101943.41;;;14.08;64.03
76637;BME280;65532;52.124;5.480;2023-10-09T01:55:16;101938.56;;;14.11;66.18
76637;BME280;65532;52.124;5.480;2023-10-09T01:57:59;101945.06;;;14.09;67.64
76637;BME280;65532;52.124;5.480;2023-10-09T02:00:33;101939.63;;;14.09;69.29
76637;BME280;65532;52.124;5.480;2023-10-09T02:03:08;101932.06;;;14.12;70.07
76637;BME280;65532;52.124;5.480;2023-10-09T02:05:41;101924.94;;;14.11;71.54
76637;BME280;65532;52.124;5.480;2023-10-09T02:08:08;101926.63;;;14.12;72.51
76637;BME280;65532;52.124;5.480;2023-10-09T02:10:35;101925.56;;;14.13;73.52
76637;BME280;65532;52.124;5.480;2023-10-09T02:13:07;101926.63;;;14.12;74.61
76637;BME280;65532;52.124;5.480;2023-10-09T02:15:37;101919.03;;;14.14;75.03
76637;BME280;65532;52.124;5.480;2023-10-09T02:18:12;101912.75;;;14.13;76.04
76637;BME280;65532;52.124;5.480;2023-10-09T02:23:28;101908.75;;;14.16;77.18
76637;BME280;65532;52.124;5.480;2023-10-09T02:26:14;101910.63;;;14.15;77.97
76637;BME280;65532;52.124;5.480;2023-10-09T02:28:59;101902.25;;;14.17;78.49
76637;BME280;65532;52.124;5.480;2023-10-09T02:31:27;101896.78;;;14.17;79.04
76637;BME280;65532;52.124;5.480;2023-10-09T02:34:02;101894.06;;;14.17;80.02
76637;BME280;65532;52.124;5.480;2023-10-09T02:36:31;101899.28;;;14.18;80.46
76637;BME280;65532;52.124;5.480;2023-10-09T02:38:58;101892.56;;;14.21;80.29
76637;BME280;65532;52.124;5.480;2023-10-09T02:41:24;101892.56;;;14.21;81.09
76637;BME280;65532;52.124;5.480;2023-10-09T02:43:54;101898.03;;;14.21;81.26
76637;BME280;65532;52.124;5.480;2023-10-09T02:46:31;101894.22;;;14.22;81.68
76637;BME280;65532;52.124;5.480;2023-10-09T02:48:57;101885.00;;;14.23;82.08
76637;BME280;65532;52.124;5.480;2023-10-09T02:51:27;101887.72;;;14.23;82.35
76637;BME280;65532;52.124;5.480;2023-10-09T02:53:58;101884.75;;;14.24;82.28
76637;BME280;65532;52.124;5.480;2023-10-09T02:56:25;101877.41;;;14.25;82.43
76637;BME280;65532;52.124;5.480;2023-10-09T02:59:09;101879.09;;;14.26;82.30
76637;BME280;65532;52.124;5.480;2023-10-09T03:01:38;101871.50;;;14.28;82.20
76637;BME280;65532;52.124;5.480;2023-10-09T03:04:06;101873.16;;;14.29;82.19
76637;BME280;65532;52.124;5.480;2023-10-09T03:06:33;101867.47;;;14.30;82.36
76637;BME280;65532;52.124;5.480;2023-10-09T03:09:10;101871.88;;;14.31;82.84
76637;BME280;65532;52.124;5.480;2023-10-09T03:11:58;101868.91;;;14.33;82.86
76637;BME280;65532;52.124;5.480;2023-10-09T03:14:31;101860.75;;;14.33;83.08
76637;BME280;65532;52.124;5.480;2023-10-09T03:16:58;101869.75;;;14.33;83.35
76637;BME280;65532;52.124;5.480;2023-10-09T03:19:25;101866.78;;;14.35;83.25
76637;BME280;65532;52.124;5.480;2023-10-09T03:21:55;101868.47;;;14.36;83.34
76637;BME280;65532;52.124;5.480;2023-10-09T03:24:26;101870.13;;;14.37;83.35
76637;BME280;65532;52.124;5.480;2023-10-09T03:26:54;101870.13;;;14.37;83.11
76637;BME280;65532;52.124;5.480;2023-10-09T03:29:23;101860.91;;;14.38;83.62
76637;BME280;65532;52.124;5.480;2023-10-09T03:31:50;101860.91;;;14.38;83.30
76637;BME280;65532;52.124;5.480;2023-10-09T03:34:17;101865.53;;;14.37;83.52
76637;BME280;65532;52.124;5.480;2023-10-09T03:36:47;101866.34;;;14.38;83.44
76637;BME280;65532;52.124;5.480;2023-10-09T03:39:14;101865.53;;;14.37;83.63
76637;BME280;65532;52.124;5.480;2023-10-09T03:42:00;101855.69;;;14.36;83.25
76637;BME280;65532;52.124;5.480;2023-10-09T03:44:26;101849.41;;;14.36;82.61
76637;BME280;65532;52.124;5.480;2023-10-09T03:46:56;101851.25;;;14.35;82.01
76637;BME280;65532;52.124;5.480;2023-10-09T03:49:23;101877.25;;;14.38;81.07
76637;BME280;65532;52.124;5.480;2023-10-09T03:51:52;101899.47;;;14.35;81.78
76637;BME280;65532;52.124;5.480;2023-10-09T03:54:19;101899.94;;;14.32;82.13
76637;BME280;65532;52.124;5.480;2023-10-09T03:56:48;101910.84;;;14.32;82.02
76637;BME280;65532;52.124;5.480;2023-10-09T03:59:20;101898.28;;;14.31;81.46
76637;BME280;65532;52.124;5.480;2023-10-09T04:01:47;101904.78;;;14.30;81.03
76637;BME280;65532;52.124;5.480;2023-10-09T04:04:19;101901.00;;;14.31;80.14
76637;BME280;65532;52.124;5.480;2023-10-09T04:06:50;101898.06;;;14.32;78.47
76637;BME280;65532;52.124;5.480;2023-10-09T04:09:20;101903.03;;;14.35;76.44
76637;BME280;65532;52.124;5.480;2023-10-09T04:11:50;101900.72;;;14.39;74.51
76637;BME280;65532;52.124;5.480;2023-10-09T04:14:40;101901.91;;;14.43;72.51
76637;BME280;65532;52.124;5.480;2023-10-09T04:17:21;101893.06;;;14.48;70.69
76637;BME280;65532;52.124;5.480;2023-10-09T04:19:51;101898.03;;;14.51;70.38
76637;BME280;65532;52.124;5.480;2023-10-09T04:22:37;101896.31;;;14.56;69.52
76637;BME280;65532;52.124;5.480;2023-10-09T04:25:17;101900.91;;;14.56;70.15
76637;BME280;65532;52.124;5.480;2023-10-09T04:27:53;101901.75;;;14.56;69.79
76637;BME280;65532;52.124;5.480;2023-10-09T04:30:19;101885.16;;;14.58;69.74
76637;BME280;65532;52.124;5.480;2023-10-09T04:32:46;101882.19;;;14.59;69.27
76637;BME280;65532;52.124;5.480;2023-10-09T04:35:13;101878.41;;;14.60;69.40
76637;BME280;65532;52.124;5.480;2023-10-09T04:37:48;101868.94;;;14.63;68.67
76637;BME280;65532;52.124;5.480;2023-10-09T04:40:31;101868.25;;;14.67;67.20
76637;BME280;65532;52.124;5.480;2023-10-09T04:43:07;101880.34;;;14.72;67.96
76637;BME280;65532;52.124;5.480;2023-10-09T04:45:36;101873.84;;;14.73;67.91
76637;BME280;65532;52.124;5.480;2023-10-09T04:48:33;101871.69;;;14.75;68.23
76637;BME280;65532;52.124;5.480;2023-10-09T04:51:07;101881.53;;;14.76;68.50
76637;BME280;65532;52.124;5.480;2023-10-09T04:53:53;101868.50;;;14.78;68.47
76637;BME280;65532;52.124;5.480;2023-10-09T04:56:39;101874.53;;;14.80;68.25
76637;BME280;65532;52.124;5.480;2023-10-09T04:59:18;101857.94;;;14.81;68.46
76637;BME280;65532;52.124;5.480;2023-10-09T05:01:45;101872.22;;;14.83;68.13
76637;BME280;65532;52.124;5.480;2023-10-09T05:04:27;101866.50;;;14.85;68.30
76637;BME280;65532;52.124;5.480;2023-10-09T05:07:06;101867.09;;;14.87;68.18
76637;BME280;65532;52.124;5.480;2023-10-09T05:09:51;101866.03;;;14.88;67.88
76637;BME280;65532;52.124;5.480;2023-10-09T05:12:41;101869.13;;;14.91;67.17
76637;BME280;65532;52.124;5.480;2023-10-09T05:15:14;101877.66;;;14.95;66.84
76637;BME280;65532;52.124;5.480;2023-10-09T05:17:41;101871.97;;;14.96;66.88
76637;BME280;65532;52.124;5.480;2023-10-09T05:20:18;101870.69;;;14.99;66.65
76637;BME280;65532;52.124;5.480;2023-10-09T05:22:53;101891.44;;;15.00;66.89
76637;BME280;65532;52.124;5.480;2023-10-09T05:25:46;101895.84;;;15.01;66.83
76637;BME280;65532;52.124;5.480;2023-10-09T05:28:47;101908.41;;;15.02;66.85
76637;BME280;65532;52.124;5.480;2023-10-09T05:31:15;101913.84;;;15.02;67.03
76637;BME280;65532;52.124;5.480;2023-10-09T05:34:11;101922.88;;;15.03;67.53
76637;BME280;65532;52.124;5.480;2023-10-09T05:36:46;101930.81;;;15.04;67.08
76637;BME280;65532;52.124;5.480;2023-10-09T05:39:14;101920.72;;;15.05;66.88
76637;BME280;65532;52.124;5.480;2023-10-09T05:42:03;101927.84;;;15.06;66.97
76637;BME280;65532;52.124;5.480;2023-10-09T05:44:38;101925.94;;;15.06;67.06
76637;BME280;65532;52.124;5.480;2023-10-09T05:47:45;101928.69;;;15.06;66.86
76637;BME280;65532;52.124;5.480;2023-10-09T05:52:50;101930.94;;;15.09;66.15
76637;BME280;65532;52.124;5.480;2023-10-09T05:55:20;101945.16;;;15.11;65.64
76637;BME280;65532;52.124;5.480;2023-10-09T05:57:53;101933.19;;;15.12;65.37
76637;BME280;65532;52.124;5.480;2023-10-09T06:00:24;101943.41;;;15.17;64.77
76637;BME280;65532;52.124;5.480;2023-10-09T06:03:09;101937.72;;;15.18;65.36
76637;BME280;65532;52.124;5.480;2023-10-09T06:05:46;101932.03;;;15.20;66.11
76637;BME280;65532;52.124;5.480;2023-10-09T06:08:23;101907.81;;;15.23;66.31
76637;BME280;65532;52.124;5.480;2023-10-09T06:10:53;101891.81;;;15.27;66.09
76637;BME280;65532;52.124;5.480;2023-10-09T06:13:53;101876.66;;;15.31;66.50
76637;BME280;65532;52.124;5.480;2023-10-09T06:16:33;101887.91;;;15.35;67.06
76637;BME280;65532;52.124;5.480;2023-10-09T06:19:05;101895.03;;;15.36;67.59
76637;BME280;65532;52.124;5.480;2023-10-09T06:21:39;101901.91;;;15.38;68.42
76637;BME280;65532;52.124;5.480;2023-10-09T06:24:08;101907.94;;;15.40;69.11
76637;BME280;65532;52.124;5.480;2023-10-09T06:26:46;101903.31;;;15.41;69.60
76637;BME280;65532;52.124;5.480;2023-10-09T06:29:28;101891.34;;;15.42;69.93
76637;BME280;65532;52.124;5.480;2023-10-09T06:32:11;101886.47;;;15.44;71.03
76637;BME280;65532;52.124;5.480;2023-10-09T06:34:57;101873.88;;;15.43;70.73
76637;BME280;65532;52.124;5.480;2023-10-09T06:37:44;101900.13;;;15.44;71.61
76637;BME280;65532;52.124;5.480;2023-10-09T06:40:31;101891.09;;;15.43;72.83
76637;BME280;65532;52.124;5.480;2023-10-09T06:43:17;101905.81;;;15.42;72.95
76637;BME280;65532;52.124;5.480;2023-10-09T06:45:44;101923.84;;;15.43;72.74
76637;BME280;65532;52.124;5.480;2023-10-09T06:48:14;101935.59;;;15.44;72.21
76637;BME280;65532;52.124;5.480;2023-10-09T06:51:07;101935.59;;;15.44;71.81
76637;BME280;65532;52.124;5.480;2023-10-09T06:53:53;101933.47;;;15.46;71.01
76637;BME280;65532;52.124;5.480;2023-10-09T06:56:27;101944.75;;;15.49;70.82
76637;BME280;65532;52.124;5.480;2023-10-09T06:59:01;101939.66;;;15.53;70.64
76637;BME280;65532;52.124;5.480;2023-10-09T07:01:34;101940.81;;;15.57;70.74
76637;BME280;65532;52.124;5.480;2023-10-09T07:04:11;101928.63;;;15.60;71.35
76637;BME280;65532;52.124;5.480;2023-10-09T07:06:56;101927.34;;;15.62;71.69
76637;BME280;65532;52.124;5.480;2023-10-09T07:09:23;101931.84;;;15.68;72.38
76637;BME280;65532;52.124;5.480;2023-10-09T07:11:53;101926.97;;;15.70;73.40
76637;BME280;65532;52.124;5.480;2023-10-09T07:14:24;101919.13;;;15.74;74.26
76637;BME280;65532;52.124;5.480;2023-10-09T07:17:07;101926.84;;;15.77;75.52
76637;BME280;65532;52.124;5.480;2023-10-09T07:19:53;101943.34;;;15.82;76.92
76637;BME280;65532;52.124;5.480;2023-10-09T07:22:21;101931.13;;;15.84;78.15
76637;BME280;65532;52.124;5.480;2023-10-09T07:24:48;101928.97;;;15.86;78.93
76637;BME280;65532;52.124;5.480;2023-10-09T07:27:41;101920.28;;;15.90;79.62
76637;BME280;65532;52.124;5.480;2023-10-09T07:30:16;101908.28;;;15.91;80.52
76637;BME280;65532;52.124;5.480;2023-10-09T07:32:59;101899.84;;;15.92;81.68
76637;BME280;65532;52.124;5.480;2023-10-09T07:35:32;101885.97;;;15.94;82.29
76637;BME280;65532;52.124;5.480;2023-10-09T07:38:21;101876.22;;;15.98;82.10
76637;BME280;65532;52.124;5.480;2023-10-09T07:41:02;101865.66;;;16.01;82.27
76637;BME280;65532;52.124;5.480;2023-10-09T07:43:38;101860.53;;;16.05;83.00
76637;BME280;65532;52.124;5.480;2023-10-09T07:46:06;101871.31;;;16.11;83.43
76637;BME280;65532;52.124;5.480;2023-10-09T07:48:52;101890.53;;;16.16;83.60
76637;BME280;65532;52.124;5.480;2023-10-09T07:51:23;101894.78;;;16.24;85.24
76637;BME280;65532;52.124;5.480;2023-10-09T07:53:51;101911.31;;;16.29;86.24
76637;BME280;65532;52.124;5.480;2023-10-09T07:56:24;101907.34;;;16.37;87.58
76637;BME280;65532;52.124;5.480;2023-10-09T07:58:51;101912.69;;;16.43;88.30
76637;BME280;65532;52.124;5.480;2023-10-09T08:01:18;101917.16;;;16.50;89.29
76637;BME280;65532;52.124;5.480;2023-10-09T08:04:04;101923.28;;;16.57;90.38
76637;BME280;65532;52.124;5.480;2023-10-09T08:06:44;101923.75;;;16.65;91.72
76637;BME280;65532;52.124;5.480;2023-10-09T08:09:30;101925.53;;;16.71;92.87
76637;BME280;65532;52.124;5.480;2023-10-09T08:12:17;101924.88;;;16.81;94.17
76637;BME280;65532;52.124;5.480;2023-10-09T08:15:03;101942.56;;;16.90;96.75
76637;BME280;65532;52.124;5.480;2023-10-09T08:17:50;101949.28;;;16.99;98.70
76637;BME280;65532;52.124;5.480;2023-10-09T08:20:31;101943.31;;;17.02;100.00
76637;BME280;65532;52.124;5.480;2023-10-09T08:23:15;101950.22;;;17.05;100.00
76637;BME280;65532;52.124;5.480;2023-10-09T08:26:18;101939.03;;;17.06;100.00
76637;BME280;65532;52.124;5.480;2023-10-09T08:28:58;101935.53;;;17.11;100.00
76637;BME280;65532;52.124;5.480;2023-10-09T08:31:43;101935.38;;;17.18;100.00
76637;BME280;65532;52.124;5.480;2023-10-09T08:34:15;101945.34;;;17.24;100.00
76637;BME280;65532;52.124;5.480;2023-10-09T08:36:55;101951.97;;;17.28;100.00
76637;BME280;65532;52.124;5.480;2023-10-09T08:39:22;101959.44;;;17.32;100.00
76637;BME280;65532;52.124;5.480;2023-10-09T08:41:53;101982.84;;;17.40;100.00
76637;BME280;65532;52.124;5.480;2023-10-09T08:44:20;101990.63;;;17.48;100.00
76637;BME280;65532;52.124;5.480;2023-10-09T08:46:53;101991.06;;;17.57;100.00
76637;BME280;65532;52.124;5.480;2023-10-09T08:49:20;101990.63;;;17.65;100.00
76637;BME280;65532;52.124;5.480;2023-10-09T08:51:48;101987.00;;;17.76;100.00
76637;BME280;65532;52.124;5.480;2023-10-09T08:54:14;101992.63;;;17.86;100.00
76637;BME280;65532;52.124;5.480;2023-10-09T08:56:42;101997.34;;;17.91;100.00
76637;BME280;65532;52.124;5.480;2023-10-09T08:59:19;102002.66;;;17.98;100.00
76637;BME280;65532;52.124;5.480;2023-10-09T09:01:49;102004.41;;;18.04;100.00
76637;BME280;65532;52.124;5.480;2023-10-09T09:04:38;101991.59;;;18.09;100.00
76637;BME280;65532;52.124;5.480;2023-10-09T09:07:21;101997.22;;;18.19;100.00
76637;BME280;65532;52.124;5.480;2023-10-09T09:09:55;101994.84;;;18.28;100.00
76637;BME280;65532;52.124;5.480;2023-10-09T09:12:31;101996.91;;;18.38;100.00
76637;BME280;65532;52.124;5.480;2023-10-09T09:15:13;102001.09;;;18.45;100.00
76637;BME280;65532;52.124;5.480;2023-10-09T09:17:46;101997.09;;;18.53;100.00
76637;BME280;65532;52.124;5.480;2023-10-09T09:22:54;102011.59;;;18.70;100.00
76637;BME280;65532;52.124;5.480;2023-10-09T09:25:23;102014.47;;;18.80;100.00
76637;BME280;65532;52.124;5.480;2023-10-09T09:28:04;102012.63;;;18.91;100.00
76637;BME280;65532;52.124;5.480;2023-10-09T09:30:39;102015.81;;;19.05;100.00
76637;BME280;65532;52.124;5.480;2023-10-09T09:33:21;102014.78;;;19.11;100.00
76637;BME280;65532;52.124;5.480;2023-10-09T09:38:26;102014.34;;;19.24;100.00
76637;BME280;65532;52.124;5.480;2023-10-09T09:40:56;102022.13;;;19.32;100.00
76637;BME280;65532;52.124;5.480;2023-10-09T09:43:23;102021.91;;;19.39;100.00
76637;BME280;65532;52.124;5.480;2023-10-09T09:45:52;102015.56;;;19.38;100.00
76637;BME280;65532;52.124;5.480;2023-10-09T09:48:20;102014.03;;;19.48;100.00
76637;BME280;65532;52.124;5.480;2023-10-09T09:50:52;102016.78;;;19.53;100.00
76637;BME280;65532;52.124;5.480;2023-10-09T09:53:20;102014.16;;;19.58;100.00
76637;BME280;65532;52.124;5.480;2023-10-09T09:55:51;102013.91;;;19.64;100.00
76637;BME280;65532;52.124;5.480;2023-10-09T09:58:26;102014.28;;;19.78;100.00
76637;BME280;65532;52.124;5.480;2023-10-09T10:01:04;102011.56;;;19.83;100.00
76637;BME280;65532;52.124;5.480;2023-10-09T10:04:12;102017.88;;;19.84;100.00
76637;BME280;65532;52.124;5.480;2023-10-09T10:06:42;102017.59;;;19.80;100.00
76637;BME280;65532;52.124;5.480;2023-10-09T10:09:38;102011.84;;;19.87;100.00
76637;BME280;65532;52.124;5.480;2023-10-09T10:12:06;102014.13;;;19.95;100.00
76637;BME280;65532;52.124;5.480;2023-10-09T10:14:58;102005.13;;;20.04;100.00
76637;BME280;65532;52.124;5.480;2023-10-09T10:20:29;102013.09;;;20.06;100.00
76637;BME280;65532;52.124;5.480;2023-10-09T10:23:17;102005.69;;;20.07;100.00
76637;BME280;65532;52.124;5.480;2023-10-09T10:25:46;102008.19;;;20.18;100.00
76637;BME280;65532;52.124;5.480;2023-10-09T10:28:19;102018.38;;;20.18;100.00
76637;BME280;65532;52.124;5.480;2023-10-09T10:30:55;102023.59;;;20.14;100.00
76637;BME280;65532;52.124;5.480;2023-10-09T10:33:27;102029.63;;;20.11;100.00
76637;BME280;65532;52.124;5.480;2023-10-09T10:36:13;102041.44;;;20.12;100.00
76637;BME280;65532;52.124;5.480;2023-10-09T10:41:55;102041.44;;;20.12;100.00
76637;BME280;65532;52.124;5.480;2023-10-09T10:44:31;102031.28;;;20.17;100.00
76637;BME280;65532;52.124;5.480;2023-10-09T10:47:12;102028.34;;;20.29;100.00
76637;BME280;65532;52.124;5.480;2023-10-09T10:49:51;102035.53;;;20.35;100.00
76637;BME280;65532;52.124;5.480;2023-10-09T10:52:25;102029.19;;;20.34;100.00
76637;BME280;65532;52.124;5.480;2023-10-09T10:55:13;102018.00;;;20.41;100.00
76637;BME280;65532;52.124;5.480;2023-10-09T10:57:59;102025.16;;;20.42;99.67
76637;BME280;65532;52.124;5.480;2023-10-09T11:00:40;102023.50;;;20.46;99.37
76637;BME280;65532;52.124;5.480;2023-10-09T11:03:25;102022.41;;;20.47;98.03
76637;BME280;65532;52.124;5.480;2023-10-09T11:06:11;102031.22;;;20.49;98.05
76637;BME280;65532;52.124;5.480;2023-10-09T11:08:45;102031.56;;;20.63;97.77
76637;BME280;65532;52.124;5.480;2023-10-09T11:11:22;102024.69;;;20.66;97.16
76637;BME280;65532;52.124;5.480;2023-10-09T11:13:49;102017.53;;;20.64;96.12
76637;BME280;65532;52.124;5.480;2023-10-09T11:16:25;102016.69;;;20.64;95.74
76637;BME280;65532;52.124;5.480;2023-10-09T11:19:19;102016.47;;;20.71;95.49
76637;BME280;65532;52.124;5.480;2023-10-09T11:21:56;102027.47;;;20.71;95.44
76637;BME280;65532;52.124;5.480;2023-10-09T11:24:34;102024.72;;;20.76;95.59
76637;BME280;65532;52.124;5.480;2023-10-09T11:27:02;102023.94;;;20.85;94.76
76637;BME280;65532;52.124;5.480;2023-10-09T11:29:48;102021.19;;;20.90;93.46
76637;BME280;65532;52.124;5.480;2023-10-09T11:32:20;102023.66;;;20.92;93.42
76637;BME280;65532;52.124;5.480;2023-10-09T11:34:51;102029.44;;;20.96;92.98
76637;BME280;65532;52.124;5.480;2023-10-09T11:37:23;102031.38;;;20.90;92.06
76637;BME280;65532;52.124;5.480;2023-10-09T11:39:57;102018.72;;;20.89;92.34
76637;BME280;65532;52.124;5.480;2023-10-09T11:42:27;102022.56;;;20.88;92.02
76637;BME280;65532;52.124;5.480;2023-10-09T11:45:19;102012.09;;;20.95;91.92
76637;BME280;65532;52.124;5.480;2023-10-09T11:47:47;102014.63;;;21.02;91.13
76637;BME280;65532;52.124;5.480;2023-10-09T11:50:46;102016.53;;;21.01;91.63
76637;BME280;65532;52.124;5.480;2023-10-09T11:53:18;102019.31;;;21.06;91.35
76637;BME280;65532;52.124;5.480;2023-10-09T11:55:51;102023.97;;;21.06;91.15
76637;BME280;65532;52.124;5.480;2023-10-09T11:58:20;102031.13;;;21.12;91.40
76637;BME280;65532;52.124;5.480;2023-10-09T12:00:51;102024.81;;;21.06;91.04
76637;BME280;65532;52.124;5.480;2023-10-09T12:03:26;102025.09;;;21.05;91.56
76637;BME280;65532;52.124;5.480;2023-10-09T12:05:57;102022.84;;;20.97;91.66
76637;BME280;65532;52.124;5.480;2023-10-09T12:08:24;102007.16;;;20.87;92.11
76637;BME280;65532;52.124;5.480;2023-10-09T12:10:54;102002.75;;;20.86;92.86
76637;BME280;65532;52.124;5.480;2023-10-09T12:13:24;102011.56;;;20.88;92.45
76637;BME280;65532;52.124;5.480;2023-10-09T12:15:52;101997.22;;;20.96;92.59
76637;BME280;65532;52.124;5.480;2023-10-09T12:18:20;102005.81;;;21.10;92.55
76637;BME280;65532;52.124;5.480;2023-10-09T12:20:48;102003.03;;;21.10;92.58
76637;BME280;65532;52.124;5.480;2023-10-09T12:23:18;102002.47;;;20.98;92.48
76637;BME280;65532;52.124;5.480;2023-10-09T12:25:48;102000.53;;;20.88;92.52
76637;BME280;65532;52.124;5.480;2023-10-09T12:28:17;101993.09;;;20.83;92.98
76637;BME280;65532;52.124;5.480;2023-10-09T12:30:47;101998.03;;;20.76;93.09
76637;BME280;65532;52.124;5.480;2023-10-09T12:33:19;102004.59;;;20.65;94.08
76637;BME280;65532;52.124;5.480;2023-10-09T12:35:46;101998.25;;;20.59;94.75
76637;BME280;65532;52.124;5.480;2023-10-09T12:38:14;101998.81;;;20.61;95.40
76637;BME280;65532;52.124;5.480;2023-10-09T12:40:45;101995.50;;;20.59;95.75
76637;BME280;65532;52.124;5.480;2023-10-09T12:43:18;101994.94;;;20.57;96.22
76637;BME280;65532;52.124;5.480;2023-10-09T12:45:46;102004.56;;;20.60;96.38
76637;BME280;65532;52.124;5.480;2023-10-09T12:48:12;101999.34;;;20.53;96.12
76637;BME280;65532;52.124;5.480;2023-10-09T12:50:40;102005.94;;;20.57;96.28
76637;BME280;65532;52.124;5.480;2023-10-09T12:53:13;102009.25;;;20.59;96.38
76637;BME280;65532;52.124;5.480;2023-10-09T12:55:44;102009.25;;;20.59;96.81
76637;BME280;65532;52.124;5.480;2023-10-09T12:58:11;102007.59;;;20.58;96.38
76637;BME280;65532;52.124;5.480;2023-10-09T13:00:43;102003.19;;;20.52;95.90
76637;BME280;65532;52.124;5.480;2023-10-09T13:03:16;102012.53;;;20.51;95.63
76637;BME280;65532;52.124;5.480;2023-10-09T13:05:51;102010.84;;;20.45;96.40
76637;BME280;65532;52.124;5.480;2023-10-09T13:08:27;102015.19;;;20.36;96.47
76637;BME280;65532;52.124;5.480;2023-10-09T13:11:02;102018.44;;;20.28;96.67
76637;BME280;65532;52.124;5.480;2023-10-09T13:13:38;102021.72;;;20.20;96.85
76637;BME280;65532;52.124;5.480;2023-10-09T13:16:18;102015.06;;;20.16;97.24
76637;BME280;65532;52.124;5.480;2023-10-09T13:21:21;102006.78;;;20.11;97.33
76637;BME280;65532;52.124;5.480;2023-10-09T13:23:49;102013.94;;;20.12;97.43
76637;BME280;65532;52.124;5.480;2023-10-09T13:26:21;102012.84;;;20.08;96.96
76637;BME280;65532;52.124;5.480;2023-10-09T13:29:00;102011.75;;;20.09;97.64
76637;BME280;65532;52.124;5.480;2023-10-09T13:31:28;102011.19;;;20.07;97.82
76637;BME280;65532;52.124;5.480;2023-10-09T13:33:58;102018.34;;;20.08;98.03
76637;BME280;65532;52.124;5.480;2023-10-09T13:36:26;102013.38;;;20.04;97.66
76637;BME280;65532;52.124;5.480;2023-10-09T13:39:02;102003.97;;;19.95;97.90
76637;BME280;65532;52.124;5.480;2023-10-09T13:41:52;102014.94;;;19.90;97.79
76637;BME280;65532;52.124;5.480;2023-10-09T13:44:30;102015.69;;;19.86;98.08
76637;BME280;65532;52.124;5.480;2023-10-09T13:46:59;102015.41;;;19.82;98.18